Time;durP1;ratioP1;P1;durP2;ratioP2;P2;SDS_P1;SDS_P2;PMS_P1;PMS_P2;Temp;Humidity;BMP_temperature;BMP_pressure;BME280_temperature;BME280_humidity;BME280_pressure;Samples;Min_cycle;Max_cycle;Signal;HPM_P1;HPM_P2
2023/11/18 00:02:07;;;;;;;14.13;7.55;;;;;;;;;;5044953;28;20049;-77
2023/11/18 00:04:39;;;;;;;13.02;6.85;;;;;;;;;;5044838;28;20056;-77
2023/11/18 00:07:09;;;;;;;16.23;7.05;;;;;;;;;;5044601;28;20048;-75
2023/11/18 00:09:42;;;;;;;14.52;8.27;;;;;;;;;;5044631;28;20045;-77
2023/11/18 00:12:14;;;;;;;13.57;7.55;;;;;;;;;;5044830;28;20419;-77
2023/11/18 00:14:45;;;;;;;15.07;7.55;;;;;;;;;;5044539;28;20040;-76
2023/11/18 00:17:15;;;;;;;11.45;7.13;;;;;;;;;;5044151;28;20049;-75
2023/11/18 00:19:48;;;;;;;13.82;7.22;;;;;;;;;;5045384;28;20053;-81
2023/11/18 00:22:19;;;;;;;12.18;6.90;;;;;;;;;;5045046;28;20052;-77
2023/11/18 00:24:49;;;;;;;18.00;7.78;;;;;;;;;;5044049;28;20049;-78
2023/11/18 00:27:19;;;;;;;16.77;7.32;;;;;;;;;;5043666;28;20528;-77
2023/11/18 00:29:50;;;;;;;10.10;5.90;;;;;;;;;;5044573;28;20064;-77
2023/11/18 00:32:20;;;;;;;10.07;6.53;;;;;;;;;;5044724;28;20040;-76
2023/11/18 00:34:51;;;;;;;11.13;7.15;;;;;;;;;;5044662;28;20415;-77
2023/11/18 00:37:21;;;;;;;16.73;7.53;;;;;;;;;;5042739;28;20423;-77
2023/11/18 00:39:51;;;;;;;14.70;6.95;;;;;;;;;;5043465;28;20061;-77
2023/11/18 00:42:22;;;;;;;12.93;5.53;;;;;;;;;;5042275;28;20082;-76
2023/11/18 00:44:55;;;;;;;11.82;6.28;;;;;;;;;;5043066;28;20283;-76
2023/11/18 00:47:25;;;;;;;10.15;5.90;;;;;;;;;;5043897;28;20041;-75
2023/11/18 00:49:57;;;;;;;9.18;5.45;;;;;;;;;;5042647;28;20053;-76
2023/11/18 00:52:29;;;;;;;11.13;5.53;;;;;;;;;;5040528;28;20472;-77
2023/11/18 00:55:00;;;;;;;10.85;4.95;;;;;;;;;;5041790;28;20049;-76
2023/11/18 00:57:31;;;;;;;13.35;5.57;;;;;;;;;;5042825;28;21194;-76
2023/11/18 01:00:02;;;;;;;7.25;4.70;;;;;;;;;;5042002;28;20060;-77
2023/11/18 01:02:33;;;;;;;10.98;5.03;;;;;;;;;;5043888;28;20049;-76
2023/11/18 01:05:04;;;;;;;11.07;5.53;;;;;;;;;;5043240;28;20059;-76
2023/11/18 01:07:36;;;;;;;12.32;4.97;;;;;;;;;;5044006;28;20057;-77
2023/11/18 01:10:07;;;;;;;24.48;5.72;;;;;;;;;;5043474;28;20060;-76
2023/11/18 01:12:38;;;;;;;14.43;5.25;;;;;;;;;;5042010;28;20064;-77
2023/11/18 01:15:10;;;;;;;9.60;5.28;;;;;;;;;;5043906;28;20048;-76
2023/11/18 01:17:41;;;;;;;9.30;5.53;;;;;;;;;;5042897;28;20651;-75
2023/11/18 01:20:13;;;;;;;10.13;4.97;;;;;;;;;;5043818;28;20506;-76
2023/11/18 01:22:45;;;;;;;8.90;4.55;;;;;;;;;;5043462;28;20045;-76
2023/11/18 01:25:17;;;;;;;10.98;4.78;;;;;;;;;;5043105;28;20048;-76
2023/11/18 01:27:48;;;;;;;9.07;4.35;;;;;;;;;;5042939;28;20056;-76
2023/11/18 01:30:18;;;;;;;6.97;4.57;;;;;;;;;;5043015;28;20045;-75
2023/11/18 01:32:48;;;;;;;7.63;5.10;;;;;;;;;;5042859;28;20045;-76
2023/11/18 01:35:19;;;;;;;8.65;5.05;;;;;;;;;;5043033;28;20071;-75
2023/11/18 01:37:50;;;;;;;8.48;4.60;;;;;;;;;;5044467;28;20049;-75
2023/11/18 01:40:21;;;;;;;9.32;4.78;;;;;;;;;;5043220;28;20052;-75
2023/11/18 01:42:52;;;;;;;9.73;4.47;;;;;;;;;;5044501;28;20040;-74
2023/11/18 01:45:22;;;;;;;9.65;4.22;;;;;;;;;;5042679;28;20051;-75
2023/11/18 01:47:54;;;;;;;7.95;4.32;;;;;;;;;;5042786;28;20474;-75
2023/11/18 01:50:24;;;;;;;8.00;5.03;;;;;;;;;;5042802;28;20061;-76
2023/11/18 01:53:03;;;;;;;7.38;4.47;;;;;;;;;;5041713;28;20060;-76
2023/11/18 01:55:35;;;;;;;8.02;5.15;;;;;;;;;;5042431;28;20045;-76
2023/11/18 01:58:10;;;;;;;8.07;4.65;;;;;;;;;;5042863;28;20518;-76
2023/11/18 02:00:42;;;;;;;11.13;6.15;;;;;;;;;;5041202;28;20052;-77
2023/11/18 02:03:13;;;;;;;9.73;5.32;;;;;;;;;;5041412;28;20092;-76
2023/11/18 02:05:45;;;;;;;12.15;5.53;;;;;;;;;;5041294;28;20526;-76
2023/11/18 02:08:17;;;;;;;9.48;5.68;;;;;;;;;;5041097;28;20052;-76
2023/11/18 02:10:51;;;;;;;9.75;5.90;;;;;;;;;;5040470;28;20057;-75
2023/11/18 02:13:30;;;;;;;11.38;5.47;;;;;;;;;;5042775;28;20049;-75
2023/11/18 02:16:05;;;;;;;8.38;5.35;;;;;;;;;;5041183;28;20535;-76
2023/11/18 02:18:42;;;;;;;10.52;5.40;;;;;;;;;;5040799;28;20068;-76
2023/11/18 02:21:14;;;;;;;11.70;5.25;;;;;;;;;;5042614;28;20044;-76
2023/11/18 02:23:48;;;;;;;10.07;5.88;;;;;;;;;;5040930;28;20060;-77
2023/11/18 02:26:25;;;;;;;10.43;5.80;;;;;;;;;;5042489;28;20487;-77
2023/11/18 02:28:56;;;;;;;10.88;5.97;;;;;;;;;;5041948;28;20056;-77
2023/11/18 02:31:37;;;;;;;11.60;5.68;;;;;;;;;;5041266;28;20060;-77
2023/11/18 02:34:23;;;;;;;9.40;5.22;;;;;;;;;;5041407;28;20057;-76
2023/11/18 02:37:00;;;;;;;6.97;4.85;;;;;;;;;;5040801;28;20080;-76
2023/11/18 02:39:45;;;;;;;7.50;5.30;;;;;;;;;;5042153;28;20056;-77
2023/11/18 02:42:16;;;;;;;8.73;5.47;;;;;;;;;;5041473;28;20116;-76
2023/11/18 02:44:48;;;;;;;8.93;4.95;;;;;;;;;;5042988;28;20055;-77
2023/11/18 02:47:19;;;;;;;8.98;5.40;;;;;;;;;;5042450;28;20053;-77
2023/11/18 02:49:56;;;;;;;8.15;5.00;;;;;;;;;;5041198;28;20049;-77
2023/11/18 02:52:26;;;;;;;7.63;4.88;;;;;;;;;;5042289;28;20052;-77
2023/11/18 02:54:56;;;;;;;7.95;5.03;;;;;;;;;;5041524;28;20045;-76
2023/11/18 02:57:27;;;;;;;10.57;5.25;;;;;;;;;;5040577;28;20523;-77
2023/11/18 03:00:00;;;;;;;9.73;5.65;;;;;;;;;;5040968;28;20053;-77
2023/11/18 03:02:31;;;;;;;7.03;4.72;;;;;;;;;;5042069;28;20053;-77
2023/11/18 03:05:02;;;;;;;12.32;5.00;;;;;;;;;;5043450;28;20041;-77
2023/11/18 03:07:32;;;;;;;13.20;6.25;;;;;;;;;;5046158;28;20396;-77
2023/11/18 03:10:08;;;;;;;26.08;6.68;;;;;;;;;;5046045;28;20037;-78
2023/11/18 03:12:39;;;;;;;10.77;5.70;;;;;;;;;;5044057;28;20427;-77
2023/11/18 03:15:11;;;;;;;8.00;4.45;;;;;;;;;;5044547;28;20060;-77
2023/11/18 03:17:41;;;;;;;7.28;4.45;;;;;;;;;;5044111;28;20504;-76
2023/11/18 03:20:16;;;;;;;7.57;4.53;;;;;;;;;;5044760;28;20057;-78
2023/11/18 03:22:47;;;;;;;7.25;4.25;;;;;;;;;;5045943;28;20397;-77
2023/11/18 03:25:22;;;;;;;9.40;5.43;;;;;;;;;;5045577;28;20400;-77
2023/11/18 03:27:54;;;;;;;7.35;4.32;;;;;;;;;;5045712;28;20799;-76
2023/11/18 03:30:25;;;;;;;9.60;4.82;;;;;;;;;;5044651;28;20045;-75
2023/11/18 03:32:57;;;;;;;8.63;5.25;;;;;;;;;;5042113;28;20412;-76
2023/11/18 03:35:33;;;;;;;12.82;5.00;;;;;;;;;;5041963;28;20057;-75
2023/11/18 03:38:03;;;;;;;8.65;5.13;;;;;;;;;;5043864;28;20393;-76
2023/11/18 03:40:35;;;;;;;8.95;5.18;;;;;;;;;;5044642;28;20051;-76
2023/11/18 03:43:07;;;;;;;8.85;5.32;;;;;;;;;;5045172;28;20044;-75
2023/11/18 03:45:42;;;;;;;10.15;5.22;;;;;;;;;;5044462;28;20048;-75
2023/11/18 03:48:15;;;;;;;9.32;5.47;;;;;;;;;;5045425;28;20048;-75
2023/11/18 03:50:46;;;;;;;12.75;5.82;;;;;;;;;;5044004;28;20491;-75
2023/11/18 03:53:17;;;;;;;12.32;5.90;;;;;;;;;;5044282;28;20374;-75
2023/11/18 03:55:47;;;;;;;10.00;6.03;;;;;;;;;;5043537;28;20360;-76
2023/11/18 03:58:17;;;;;;;11.20;6.00;;;;;;;;;;5044102;28;20056;-74
2023/11/18 04:00:48;;;;;;;8.75;5.63;;;;;;;;;;5046082;28;20041;-74
2023/11/18 04:03:18;;;;;;;11.30;6.00;;;;;;;;;;5044337;28;20052;-75
2023/11/18 04:05:49;;;;;;;10.80;5.57;;;;;;;;;;5042924;28;20061;-75
2023/11/18 04:08:19;;;;;;;12.90;5.25;;;;;;;;;;5044521;28;20048;-75
2023/11/18 04:10:52;;;;;;;12.20;5.90;;;;;;;;;;5044871;28;20073;-75
2023/11/18 04:13:23;;;;;;;9.80;6.80;;;;;;;;;;5043843;28;21134;-74
2023/11/18 04:15:53;;;;;;;11.15;6.47;;;;;;;;;;5044225;28;21093;-76
2023/11/18 04:18:24;;;;;;;13.65;5.55;;;;;;;;;;5044131;28;20049;-75
2023/11/18 04:20:54;;;;;;;12.85;6.57;;;;;;;;;;5044675;28;20052;-75
2023/11/18 04:23:25;;;;;;;11.70;7.88;;;;;;;;;;5045110;28;20420;-77
2023/11/18 04:25:56;;;;;;;12.77;6.85;;;;;;;;;;5043358;28;20056;-75
2023/11/18 04:28:27;;;;;;;12.88;7.82;;;;;;;;;;5043988;28;20392;-76
2023/11/18 04:31:02;;;;;;;13.07;6.88;;;;;;;;;;5043601;28;20127;-76
2023/11/18 04:33:35;;;;;;;10.25;6.35;;;;;;;;;;5044385;28;20056;-75
2023/11/18 04:36:09;;;;;;;11.80;7.18;;;;;;;;;;5044328;28;20059;-76
2023/11/18 04:38:40;;;;;;;10.25;6.32;;;;;;;;;;5042102;28;20052;-76
2023/11/18 04:41:10;;;;;;;10.35;7.15;;;;;;;;;;5044233;28;20056;-76
2023/11/18 04:43:41;;;;;;;12.13;7.22;;;;;;;;;;5044445;28;20059;-77
2023/11/18 04:46:14;;;;;;;10.25;7.13;;;;;;;;;;5043921;28;20055;-76
2023/11/18 04:48:45;;;;;;;13.40;7.32;;;;;;;;;;5044758;28;20053;-78
2023/11/18 04:51:17;;;;;;;10.27;6.95;;;;;;;;;;5042633;28;20423;-77
2023/11/18 04:53:52;;;;;;;12.73;6.63;;;;;;;;;;5044120;28;20044;-76
2023/11/18 04:56:24;;;;;;;13.85;6.53;;;;;;;;;;5042580;28;20053;-75
2023/11/18 04:58:54;;;;;;;14.45;7.18;;;;;;;;;;5043689;28;20048;-77
2023/11/18 05:01:24;;;;;;;11.38;6.47;;;;;;;;;;5026321;28;20059;-77
2023/11/18 05:04:25;;;;;;;11.90;7.30;;;;;;;;;;5043863;28;20377;-76
2023/11/18 05:07:02;;;;;;;19.50;7.10;;;;;;;;;;5044057;28;20637;-76
2023/11/18 05:09:34;;;;;;;12.45;6.85;;;;;;;;;;5043268;28;20049;-76
2023/11/18 05:12:04;;;;;;;14.07;7.50;;;;;;;;;;5044084;28;20414;-76
2023/11/18 05:14:35;;;;;;;12.38;6.30;;;;;;;;;;5043110;28;20045;-76
2023/11/18 05:17:07;;;;;;;17.83;7.07;;;;;;;;;;5043567;28;20594;-78
2023/11/18 05:19:37;;;;;;;25.65;7.15;;;;;;;;;;5043482;28;20055;-76
2023/11/18 05:22:10;;;;;;;15.00;6.95;;;;;;;;;;5043583;28;20052;-76
2023/11/18 05:24:40;;;;;;;12.02;6.63;;;;;;;;;;5043276;28;20496;-76
2023/11/18 05:27:14;;;;;;;12.68;6.60;;;;;;;;;;5043039;28;20037;-77
2023/11/18 05:29:53;;;;;;;15.95;7.30;;;;;;;;;;5042695;28;20045;-77
2023/11/18 05:32:33;;;;;;;11.15;6.65;;;;;;;;;;5044830;28;20053;-78
2023/11/18 05:35:04;;;;;;;10.60;6.05;;;;;;;;;;5043511;28;20531;-78
2023/11/18 05:37:37;;;;;;;16.45;7.10;;;;;;;;;;5043658;28;20424;-76
2023/11/18 05:40:15;;;;;;;13.90;6.28;;;;;;;;;;5040997;28;20044;-78
2023/11/18 05:42:48;;;;;;;12.43;7.35;;;;;;;;;;5041226;28;20049;-77
2023/11/18 05:45:27;;;;;;;14.10;7.30;;;;;;;;;;5041854;28;20036;-77
2023/11/18 05:47:59;;;;;;;13.35;8.13;;;;;;;;;;5042825;28;20412;-78
2023/11/18 05:50:31;;;;;;;12.80;8.38;;;;;;;;;;5043203;28;20053;-76
2023/11/18 05:53:02;;;;;;;16.77;9.00;;;;;;;;;;5042993;28;20052;-77
2023/11/18 05:55:33;;;;;;;13.30;9.15;;;;;;;;;;5042744;28;20495;-76
2023/11/18 05:58:03;;;;;;;14.80;9.23;;;;;;;;;;5042238;28;20496;-77
2023/11/18 06:00:34;;;;;;;18.48;9.13;;;;;;;;;;5042562;28;20053;-77
2023/11/18 06:03:15;;;;;;;13.70;7.95;;;;;;;;;;5042292;28;20061;-76
2023/11/18 06:05:46;;;;;;;15.10;8.80;;;;;;;;;;5042745;28;20052;-77
2023/11/18 06:08:18;;;;;;;14.48;8.80;;;;;;;;;;5042215;28;20527;-77
2023/11/18 06:10:56;;;;;;;12.85;8.35;;;;;;;;;;5042464;28;20060;-76
2023/11/18 06:13:27;;;;;;;13.10;8.63;;;;;;;;;;5041524;28;20045;-76
2023/11/18 06:15:58;;;;;;;13.48;8.35;;;;;;;;;;5042078;28;20045;-77
2023/11/18 06:18:32;;;;;;;13.18;8.20;;;;;;;;;;5042067;28;20049;-76
2023/11/18 06:21:03;;;;;;;13.30;6.97;;;;;;;;;;5042121;28;20546;-76
2023/11/18 06:23:34;;;;;;;11.60;7.45;;;;;;;;;;5042485;28;20536;-76
2023/11/18 06:26:05;;;;;;;11.93;7.40;;;;;;;;;;5042280;28;21119;-75
2023/11/18 06:28:37;;;;;;;9.70;7.13;;;;;;;;;;5042510;28;20108;-76
2023/11/18 06:31:11;;;;;;;11.02;7.95;;;;;;;;;;5042520;28;20443;-75
2023/11/18 06:33:43;;;;;;;11.13;7.30;;;;;;;;;;5042242;28;20044;-75
2023/11/18 06:36:17;;;;;;;13.60;7.18;;;;;;;;;;5042380;28;20057;-76
2023/11/18 06:38:50;;;;;;;10.88;7.28;;;;;;;;;;5042019;28;20055;-76
2023/11/18 06:41:36;;;;;;;12.68;7.82;;;;;;;;;;5042038;28;20052;-76
2023/11/18 06:44:12;;;;;;;11.30;6.95;;;;;;;;;;5041930;28;20765;-76
2023/11/18 06:46:42;;;;;;;13.52;6.88;;;;;;;;;;5042159;28;20075;-77
2023/11/18 06:49:16;;;;;;;16.77;7.43;;;;;;;;;;5042449;28;20047;-75
2023/11/18 06:51:47;;;;;;;12.73;6.93;;;;;;;;;;5040543;28;20057;-76
2023/11/18 06:54:17;;;;;;;11.10;6.55;;;;;;;;;;5042232;28;20057;-75
2023/11/18 06:56:47;;;;;;;11.10;7.32;;;;;;;;;;5042093;28;20416;-75
2023/11/18 06:59:18;;;;;;;13.10;7.00;;;;;;;;;;5042612;28;20056;-75
2023/11/18 07:01:49;;;;;;;10.70;6.93;;;;;;;;;;5042382;28;20163;-75
2023/11/18 07:04:20;;;;;;;9.45;6.13;;;;;;;;;;5040838;28;20363;-75
2023/11/18 07:06:53;;;;;;;10.90;7.03;;;;;;;;;;5041549;28;20048;-76
2023/11/18 07:09:35;;;;;;;8.82;6.43;;;;;;;;;;5025041;28;20542;-76
2023/11/18 07:12:07;;;;;;;12.57;6.93;;;;;;;;;;5041512;28;20539;-77
2023/11/18 07:14:42;;;;;;;9.75;6.40;;;;;;;;;;5041446;28;20068;-76
2023/11/18 07:17:13;;;;;;;14.13;6.40;;;;;;;;;;5041778;28;20750;-75
2023/11/18 07:19:44;;;;;;;10.52;7.47;;;;;;;;;;5041604;28;20555;-75
2023/11/18 07:22:15;;;;;;;10.77;6.18;;;;;;;;;;5041747;28;20068;-74
2023/11/18 07:24:46;;;;;;;13.80;7.05;;;;;;;;;;5042091;28;20060;-74
2023/11/18 07:27:17;;;;;;;10.95;6.80;;;;;;;;;;5041666;28;20053;-77
2023/11/18 07:29:47;;;;;;;11.45;6.25;;;;;;;;;;5039809;28;20060;-75
2023/11/18 07:32:19;;;;;;;10.43;7.65;;;;;;;;;;5041535;28;20766;-75
2023/11/18 07:34:50;;;;;;;10.38;7.00;;;;;;;;;;5042105;28;20052;-74
2023/11/18 07:37:20;;;;;;;8.77;6.30;;;;;;;;;;5041601;28;20052;-76
2023/11/18 07:39:51;;;;;;;12.32;7.03;;;;;;;;;;5042344;28;20041;-75
2023/11/18 07:42:22;;;;;;;11.32;6.88;;;;;;;;;;5041973;28;20045;-76
2023/11/18 07:44:52;;;;;;;10.65;6.65;;;;;;;;;;5041803;28;20053;-76
2023/11/18 07:47:22;;;;;;;11.43;6.38;;;;;;;;;;5041689;28;20119;-76
2023/11/18 07:49:52;;;;;;;8.18;6.20;;;;;;;;;;5041402;28;20538;-76
2023/11/18 07:52:22;;;;;;;9.32;6.47;;;;;;;;;;5043842;28;20559;-76
2023/11/18 07:54:53;;;;;;;11.90;7.28;;;;;;;;;;5044727;28;20465;-76
2023/11/18 07:57:23;;;;;;;10.45;6.15;;;;;;;;;;5044821;28;20049;-77
2023/11/18 07:59:54;;;;;;;10.77;6.30;;;;;;;;;;5044892;28;20053;-76
2023/11/18 08:02:25;;;;;;;15.85;7.07;;;;;;;;;;5044321;28;20462;-76
2023/11/18 08:04:56;;;;;;;12.85;7.28;;;;;;;;;;5044987;28;20059;-77
2023/11/18 08:07:27;;;;;;;10.77;6.32;;;;;;;;;;5044501;28;20338;-79
2023/11/18 08:09:57;;;;;;;11.18;6.35;;;;;;;;;;5044612;28;20045;-78
2023/11/18 08:12:33;;;;;;;10.35;6.57;;;;;;;;;;5045342;28;20057;-78
2023/11/18 08:15:06;;;;;;;15.02;7.68;;;;;;;;;;5045670;28;20044;-80
2023/11/18 08:17:42;;;;;;;10.60;6.32;;;;;;;;;;5045315;28;20774;-78
2023/11/18 08:20:15;;;;;;;12.70;7.40;;;;;;;;;;5044537;28;20049;-77
2023/11/18 08:22:46;;;;;;;12.15;7.13;;;;;;;;;;5044387;28;20053;-77
2023/11/18 08:25:17;;;;;;;18.77;8.02;;;;;;;;;;5044503;28;20049;-77
2023/11/18 08:27:50;;;;;;;13.27;8.32;;;;;;;;;;5044637;28;20415;-78
2023/11/18 08:30:20;;;;;;;13.73;8.93;;;;;;;;;;5044543;28;20514;-77
2023/11/18 08:32:51;;;;;;;14.45;9.57;;;;;;;;;;5044681;28;20052;-77
2023/11/18 08:35:21;;;;;;;16.88;10.68;;;;;;;;;;5043434;28;20480;-78
2023/11/18 08:37:52;;;;;;;17.63;11.60;;;;;;;;;;5044341;28;20064;-78
2023/11/18 08:40:23;;;;;;;21.05;12.95;;;;;;;;;;5043717;28;20503;-77
2023/11/18 08:42:55;;;;;;;24.95;14.43;;;;;;;;;;5044555;28;20041;-77
2023/11/18 08:45:29;;;;;;;22.15;14.45;;;;;;;;;;5044401;28;20045;-77
2023/11/18 08:48:02;;;;;;;22.65;14.88;;;;;;;;;;5044238;28;20049;-77
2023/11/18 08:50:33;;;;;;;24.13;15.82;;;;;;;;;;5044016;28;20508;-77
2023/11/18 08:53:05;;;;;;;23.90;15.45;;;;;;;;;;5043702;28;20049;-77
2023/11/18 08:55:39;;;;;;;32.22;15.65;;;;;;;;;;5044808;28;20063;-79
2023/11/18 08:58:18;;;;;;;28.85;15.15;;;;;;;;;;5043571;28;20045;-80
2023/11/18 09:00:53;;;;;;;23.58;14.60;;;;;;;;;;5044105;28;20041;-79
2023/11/18 09:03:27;;;;;;;21.17;14.18;;;;;;;;;;5043252;28;20511;-78
2023/11/18 09:06:03;;;;;;;21.42;13.85;;;;;;;;;;5043856;28;20052;-77
2023/11/18 09:08:35;;;;;;;23.98;14.32;;;;;;;;;;5043743;28;20049;-77
2023/11/18 09:11:10;;;;;;;23.90;14.52;;;;;;;;;;5043672;28;20512;-78
2023/11/18 09:13:44;;;;;;;22.02;13.77;;;;;;;;;;5043798;28;20056;-77
2023/11/18 09:16:16;;;;;;;26.02;14.85;;;;;;;;;;5042162;28;20431;-77
2023/11/18 09:18:47;;;;;;;23.80;14.68;;;;;;;;;;5043240;28;20385;-76
2023/11/18 09:21:24;;;;;;;18.75;11.98;;;;;;;;;;5043561;28;20045;-77
2023/11/18 09:23:57;;;;;;;23.35;14.23;;;;;;;;;;5043766;28;20029;-77
2023/11/18 09:26:30;;;;;;;24.13;13.85;;;;;;;;;;5042909;28;20037;-77
2023/11/18 09:29:01;;;;;;;26.80;14.52;;;;;;;;;;5042981;28;20052;-77
2023/11/18 09:31:33;;;;;;;21.02;13.55;;;;;;;;;;5043216;28;20522;-78
2023/11/18 09:34:06;;;;;;;24.98;14.38;;;;;;;;;;5042628;28;20057;-77
2023/11/18 09:36:37;;;;;;;22.10;14.05;;;;;;;;;;5042587;28;20049;-77
2023/11/18 09:39:28;;;;;;;22.73;13.60;;;;;;;;;;5043168;28;20385;-76
2023/11/18 09:42:02;;;;;;;26.48;13.73;;;;;;;;;;5043032;28;20419;-76
2023/11/18 09:44:33;;;;;;;21.98;13.05;;;;;;;;;;5041638;28;20060;-76
2023/11/18 09:47:09;;;;;;;18.27;11.88;;;;;;;;;;5041071;28;20119;-76
2023/11/18 09:49:45;;;;;;;18.17;12.00;;;;;;;;;;5042728;28;20048;-76
2023/11/18 09:52:21;;;;;;;19.92;12.35;;;;;;;;;;5042480;28;20059;-76
2023/11/18 09:55:14;;;;;;;22.42;13.10;;;;;;;;;;5043151;28;20049;-76
2023/11/18 09:57:53;;;;;;;21.45;13.07;;;;;;;;;;5042534;28;20507;-76
2023/11/18 10:00:27;;;;;;;20.77;12.68;;;;;;;;;;5042961;28;20057;-77
2023/11/18 10:03:00;;;;;;;17.95;12.02;;;;;;;;;;5042909;28;20527;-77
2023/11/18 10:05:33;;;;;;;24.00;12.85;;;;;;;;;;5042832;28;20044;-76
2023/11/18 10:08:07;;;;;;;20.67;12.43;;;;;;;;;;5041457;28;20056;-77
2023/11/18 10:10:45;;;;;;;19.75;12.10;;;;;;;;;;5042827;28;20045;-77
2023/11/18 10:13:22;;;;;;;21.13;11.85;;;;;;;;;;5042947;28;20521;-78
2023/11/18 10:15:52;;;;;;;18.90;11.82;;;;;;;;;;5041576;28;20045;-78
2023/11/18 10:18:24;;;;;;;25.08;11.88;;;;;;;;;;5042058;28;20052;-76
2023/11/18 10:20:55;;;;;;;21.55;12.77;;;;;;;;;;5042253;28;20103;-77
2023/11/18 10:23:27;;;;;;;17.85;11.88;;;;;;;;;;5042217;28;20053;-77
2023/11/18 10:26:00;;;;;;;21.17;12.38;;;;;;;;;;5042082;28;20605;-77
2023/11/18 10:28:34;;;;;;;19.88;12.75;;;;;;;;;;5041839;28;20151;-77
2023/11/18 10:31:09;;;;;;;22.80;13.88;;;;;;;;;;5042216;28;20419;-78
2023/11/18 10:33:43;;;;;;;18.92;12.07;;;;;;;;;;5042334;28;20059;-78
2023/11/18 10:36:22;;;;;;;21.58;12.00;;;;;;;;;;5041877;28;20064;-78
2023/11/18 10:39:12;;;;;;;17.45;11.38;;;;;;;;;;5042947;28;20048;-77
2023/11/18 10:41:50;;;;;;;19.08;11.80;;;;;;;;;;5041891;28;20048;-76
2023/11/18 10:44:22;;;;;;;22.00;13.07;;;;;;;;;;5042587;28;20053;-78
2023/11/18 10:46:53;;;;;;;20.45;11.90;;;;;;;;;;5042325;28;20048;-76
2023/11/18 10:49:24;;;;;;;18.90;12.10;;;;;;;;;;5042029;28;20053;-76
2023/11/18 10:51:56;;;;;;;17.88;11.80;;;;;;;;;;5042142;28;20049;-77
2023/11/18 10:54:31;;;;;;;;;;;;;;;;;;5042806;28;20437;-76
2023/11/18 10:57:07;;;;;;;19.10;11.93;;;;;;;;;;5042039;28;19921;-76
2023/11/18 10:59:57;;;;;;;;;;;;;;;;;;5042592;28;20052;-76
2023/11/18 11:02:38;;;;;;;25.35;14.27;;;;;;;;;;5041587;28;20319;-77
2023/11/18 11:05:26;;;;;;;20.55;12.70;;;;;;;;;;5041760;28;20407;-77
2023/11/18 11:07:59;;;;;;;15.57;10.05;;;;;;;;;;5041980;28;20065;-78
2023/11/18 11:10:29;;;;;;;20.17;12.75;;;;;;;;;;5042112;28;20415;-76
2023/11/18 11:13:02;;;;;;;19.25;11.75;;;;;;;;;;5042123;28;20045;-76
2023/11/18 11:15:34;;;;;;;21.17;11.82;;;;;;;;;;5042027;28;20064;-76
2023/11/18 11:18:27;;;;;;;19.38;12.50;;;;;;;;;;5041873;28;20049;-76
2023/11/18 11:21:05;;;;;;;20.92;11.60;;;;;;;;;;5041522;28;20499;-75
2023/11/18 11:23:57;;;;;;;17.70;11.50;;;;;;;;;;5042230;28;20480;-76
2023/11/18 11:26:42;;;;;;;21.45;11.60;;;;;;;;;;5042359;28;20049;-76
2023/11/18 11:29:44;;;;;;;19.25;12.32;;;;;;;;;;5045769;28;20055;-76
2023/11/18 11:32:59;;;;;;;20.77;11.95;;;;;;;;;;5045369;28;20057;-76
2023/11/18 11:35:44;;;;;;;19.02;11.75;;;;;;;;;;5044534;28;20061;-76
2023/11/18 11:38:16;;;;;;;17.73;11.60;;;;;;;;;;5046011;28;20530;-75
2023/11/18 11:40:48;;;;;;;18.40;13.40;;;;;;;;;;5046193;28;20052;-79
2023/11/18 11:43:27;;;;;;;19.52;11.52;;;;;;;;;;5045645;28;20045;-76
2023/11/18 11:45:59;;;;;;;17.10;11.48;;;;;;;;;;5044760;28;20416;-75
2023/11/18 11:48:36;;;;;;;19.60;11.10;;;;;;;;;;5043841;28;20053;-77
2023/11/18 11:51:26;;;;;;;17.55;10.82;;;;;;;;;;5045551;28;20044;-75
2023/11/18 11:54:14;;;;;;;20.95;11.85;;;;;;;;;;5045197;28;20052;-80
2023/11/18 11:57:01;;;;;;;14.48;9.95;;;;;;;;;;5044822;28;20048;-76
2023/11/18 11:59:44;;;;;;;14.45;9.63;;;;;;;;;;5044811;28;20056;-74
2023/11/18 12:02:18;;;;;;;19.10;9.40;;;;;;;;;;5044929;28;20052;-77
2023/11/18 12:04:58;;;;;;;14.75;8.68;;;;;;;;;;5044952;28;20052;-76
2023/11/18 12:07:40;;;;;;;13.13;8.32;;;;;;;;;;5044703;28;20526;-76
2023/11/18 12:10:20;;;;;;;14.40;7.32;;;;;;;;;;5044855;28;20103;-76
2023/11/18 12:13:16;;;;;;;14.15;8.10;;;;;;;;;;5040845;28;20056;-76
2023/11/18 12:15:57;;;;;;;13.23;7.05;;;;;;;;;;5044967;28;20099;-76
2023/11/18 12:18:31;;;;;;;13.52;7.97;;;;;;;;;;5043200;28;20056;-76
2023/11/18 12:21:02;;;;;;;12.73;8.05;;;;;;;;;;5044708;28;20406;-77
2023/11/18 12:23:34;;;;;;;11.60;7.72;;;;;;;;;;5044695;28;20044;-76
2023/11/18 12:26:40;;;;;;;13.75;8.85;;;;;;;;;;5044717;28;20056;-75
2023/11/18 12:29:36;;;;;;;11.05;8.38;;;;;;;;;;5044389;28;20049;-76
2023/11/18 12:32:12;;;;;;;13.55;8.25;;;;;;;;;;5044105;28;20503;-77
2023/11/18 12:34:55;;;;;;;15.98;8.82;;;;;;;;;;5044426;28;20049;-75
2023/11/18 12:37:54;;;;;;;11.77;7.68;;;;;;;;;;5043491;28;20053;-76
2023/11/18 12:41:00;;;;;;;12.40;7.70;;;;;;;;;;5044374;28;20036;-77
2023/11/18 12:43:59;;;;;;;10.60;6.60;;;;;;;;;;5044529;28;20052;-76
2023/11/18 12:46:56;;;;;;;9.85;6.18;;;;;;;;;;5044762;28;20045;-75
2023/11/18 12:49:27;;;;;;;10.60;5.95;;;;;;;;;;5044029;28;20060;-76
2023/11/18 12:52:00;;;;;;;11.25;7.20;;;;;;;;;;5043998;28;20411;-75
2023/11/18 12:54:31;;;;;;;10.80;6.28;;;;;;;;;;5044325;28;20502;-75
2023/11/18 12:57:02;;;;;;;10.90;6.38;;;;;;;;;;5043956;28;20586;-76
2023/11/18 12:59:36;;;;;;;17.73;10.77;;;;;;;;;;5043529;28;20056;-76
2023/11/18 13:02:18;;;;;;;12.50;7.25;;;;;;;;;;5043437;28;20049;-76
2023/11/18 13:04:53;;;;;;;13.82;6.70;;;;;;;;;;5044413;28;20498;-75
2023/11/18 13:07:24;;;;;;;12.20;7.28;;;;;;;;;;5043954;28;20411;-77
2023/11/18 13:09:59;;;;;;;13.52;6.72;;;;;;;;;;5043853;28;20495;-75
2023/11/18 13:12:39;;;;;;;14.70;8.43;;;;;;;;;;5044858;28;20056;-75
2023/11/18 13:15:10;;;;;;;14.55;7.35;;;;;;;;;;5041961;28;20056;-77
2023/11/18 13:17:40;;;;;;;8.93;5.30;;;;;;;;;;5043123;28;20049;-75
2023/11/18 13:20:17;;;;;;;8.95;4.97;;;;;;;;;;5043600;28;20057;-75
2023/11/18 13:22:47;;;;;;;11.23;5.50;;;;;;;;;;5043953;28;20511;-76
2023/11/18 13:25:18;;;;;;;7.85;4.82;;;;;;;;;;5042960;28;20053;-77
2023/11/18 13:27:49;;;;;;;7.82;5.20;;;;;;;;;;5043165;28;20048;-76
2023/11/18 13:30:21;;;;;;;8.73;4.88;;;;;;;;;;5043050;28;20057;-78
2023/11/18 13:32:51;;;;;;;10.35;5.75;;;;;;;;;;5043079;28;20105;-76
2023/11/18 13:35:23;;;;;;;10.07;5.10;;;;;;;;;;5043420;28;21250;-77
2023/11/18 13:37:56;;;;;;;7.43;4.95;;;;;;;;;;5042367;28;20049;-79
2023/11/18 13:40:29;;;;;;;7.05;4.47;;;;;;;;;;5042908;28;20060;-77
2023/11/18 13:43:08;;;;;;;7.10;4.28;;;;;;;;;;5043497;28;20056;-76
2023/11/18 13:45:42;;;;;;;7.70;3.72;;;;;;;;;;5040956;28;20095;-76
2023/11/18 13:48:13;;;;;;;7.28;4.43;;;;;;;;;;5043224;28;20045;-76
2023/11/18 13:50:45;;;;;;;6.05;3.95;;;;;;;;;;5041861;28;20044;-78
2023/11/18 13:53:17;;;;;;;10.50;4.90;;;;;;;;;;5042406;28;20056;-76
2023/11/18 13:55:49;;;;;;;9.75;5.22;;;;;;;;;;5043218;28;20045;-82
2023/11/18 13:58:20;;;;;;;9.38;4.60;;;;;;;;;;5043297;28;20041;-77
2023/11/18 14:01:00;;;;;;;9.40;4.60;;;;;;;;;;5042546;28;20037;-77
2023/11/18 14:03:34;;;;;;;7.32;4.30;;;;;;;;;;5042144;28;20052;-77
2023/11/18 14:06:12;;;;;;;20.52;4.90;;;;;;;;;;5042465;28;20064;-76
2023/11/18 14:08:44;;;;;;;7.80;3.92;;;;;;;;;;5042088;28;20060;-75
2023/11/18 14:11:16;;;;;;;7.80;4.70;;;;;;;;;;5042488;28;20416;-76
2023/11/18 14:13:47;;;;;;;13.02;5.05;;;;;;;;;;5041232;28;20053;-76
2023/11/18 14:16:21;;;;;;;10.20;4.75;;;;;;;;;;5042505;28;20530;-76
2023/11/18 14:18:51;;;;;;;8.25;4.88;;;;;;;;;;5042550;28;20049;-76
2023/11/18 14:21:21;;;;;;;8.27;4.38;;;;;;;;;;5046874;28;20064;-77
2023/11/18 14:23:53;;;;;;;7.75;4.47;;;;;;;;;;5040923;28;20503;-76
2023/11/18 14:26:24;;;;;;;8.20;4.57;;;;;;;;;;5041893;28;20488;-75
2023/11/18 14:28:54;;;;;;;8.07;4.53;;;;;;;;;;5042764;28;20053;-75
2023/11/18 14:31:25;;;;;;;13.48;5.22;;;;;;;;;;5043020;28;20424;-76
2023/11/18 14:33:58;;;;;;;11.85;4.50;;;;;;;;;;5042659;28;20509;-75
2023/11/18 14:36:29;;;;;;;18.35;4.60;;;;;;;;;;5041609;28;20500;-80
2023/11/18 14:38:59;;;;;;;8.25;4.55;;;;;;;;;;5041459;28;20056;-75
2023/11/18 14:41:31;;;;;;;13.55;4.32;;;;;;;;;;5042260;28;20049;-80
2023/11/18 14:44:04;;;;;;;7.78;4.28;;;;;;;;;;5041844;28;20076;-76
2023/11/18 14:46:40;;;;;;;9.80;4.25;;;;;;;;;;5041747;28;20053;-77
2023/11/18 14:49:15;;;;;;;6.28;3.58;;;;;;;;;;5042557;28;20504;-77
2023/11/18 14:51:46;;;;;;;5.78;3.75;;;;;;;;;;5041154;28;20053;-77
2023/11/18 14:54:17;;;;;;;10.63;4.07;;;;;;;;;;5041982;28;20087;-82
2023/11/18 14:56:49;;;;;;;7.18;3.80;;;;;;;;;;5041871;28;20049;-77
2023/11/18 14:59:22;;;;;;;7.50;4.75;;;;;;;;;;5042427;28;20654;-76
2023/11/18 15:01:57;;;;;;;9.18;3.70;;;;;;;;;;5043412;28;20045;-75
2023/11/18 15:04:28;;;;;;;;;;;;;;;;;;5046983;28;20829;-77
2023/11/18 15:06:59;;;;;;;7.40;3.92;;;;;;;;;;5046375;28;19928;-76
2023/11/18 15:09:31;;;;;;;6.68;3.70;;;;;;;;;;5046106;28;20045;-76
2023/11/18 15:12:03;;;;;;;7.90;3.55;;;;;;;;;;5045650;28;20052;-75